createdAt,value
2023-05-21T00:01:07.060Z,13.30
2023-05-21T00:03:36.073Z,13.43
2023-05-21T00:06:04.478Z,13.83
2023-05-21T00:08:34.125Z,12.53
2023-05-21T00:11:01.709Z,12.87
2023-05-21T00:13:29.313Z,13.10
2023-05-21T00:15:58.458Z,13.23
2023-05-21T00:18:26.406Z,13.10
2023-05-21T00:20:54.407Z,12.43
2023-05-21T00:23:22.024Z,13.37
2023-05-21T00:25:50.463Z,13.40
2023-05-21T00:28:18.191Z,13.27
2023-05-21T00:30:47.240Z,11.87
2023-05-21T00:33:16.247Z,12.73
2023-05-21T00:35:43.859Z,12.17
2023-05-21T00:38:11.531Z,13.87
2023-05-21T00:40:41.165Z,13.00
2023-05-21T00:43:10.682Z,12.83
2023-05-21T00:45:38.649Z,13.20
2023-05-21T00:48:08.005Z,12.57
2023-05-21T00:50:39.593Z,11.93
2023-05-21T00:53:12.717Z,12.43
2023-05-21T00:55:40.828Z,12.70
2023-05-21T00:58:09.108Z,12.47
2023-05-21T01:00:37.380Z,12.23
2023-05-21T01:03:06.137Z,12.73
2023-05-21T01:05:34.043Z,11.90
2023-05-21T01:08:03.867Z,11.80
2023-05-21T01:10:31.576Z,12.70
2023-05-21T01:12:59.654Z,11.90
2023-05-21T01:15:27.602Z,12.50
2023-05-21T01:17:55.852Z,13.00
2023-05-21T01:20:24.503Z,13.13
2023-05-21T01:22:55.063Z,12.70
2023-05-21T01:25:22.890Z,12.60
2023-05-21T01:27:50.710Z,12.30
2023-05-21T01:30:19.576Z,12.10
2023-05-21T01:32:50.594Z,12.27
2023-05-21T01:35:21.976Z,12.97
2023-05-21T01:37:56.383Z,11.50
2023-05-21T01:40:27.720Z,12.20
2023-05-21T01:42:55.342Z,11.70
2023-05-21T01:45:23.963Z,11.97
2023-05-21T01:47:53.110Z,11.83
2023-05-21T01:50:20.792Z,11.93
2023-05-21T01:52:51.766Z,12.40
2023-05-21T01:55:24.490Z,11.80
2023-05-21T01:57:53.639Z,11.33
2023-05-21T02:00:22.330Z,12.00
2023-05-21T02:02:50.290Z,11.60
2023-05-21T02:05:18.279Z,11.57
2023-05-21T02:07:46.421Z,11.73
2023-05-21T02:10:14.485Z,11.60
2023-05-21T02:12:44.082Z,11.40
2023-05-21T02:15:11.750Z,11.67
2023-05-21T02:17:39.490Z,12.00
2023-05-21T02:20:11.519Z,12.00
2023-05-21T02:22:39.870Z,12.20
2023-05-21T02:25:08.997Z,11.70
2023-05-21T02:27:37.608Z,10.73
2023-05-21T02:30:08.990Z,11.10
2023-05-21T02:32:36.907Z,12.03
2023-05-21T02:35:05.600Z,11.30
2023-05-21T02:37:34.196Z,11.87
2023-05-21T02:40:02.207Z,10.77
2023-05-21T02:42:29.823Z,11.27
2023-05-21T02:44:57.461Z,11.40
2023-05-21T02:47:27.038Z,11.40
2023-05-21T02:49:55.203Z,11.43
2023-05-21T02:52:23.898Z,11.67
2023-05-21T02:54:53.266Z,12.50
2023-05-21T02:57:20.938Z,11.43
2023-05-21T02:59:48.495Z,11.60
2023-05-21T03:02:16.350Z,11.00
2023-05-21T03:04:46.927Z,11.63
2023-05-21T03:07:15.103Z,10.93
2023-05-21T03:09:42.926Z,11.40
2023-05-21T03:12:11.285Z,11.10
2023-05-21T03:14:39.232Z,11.23
2023-05-21T03:17:07.730Z,10.93
2023-05-21T03:19:36.297Z,11.80
2023-05-21T03:22:05.721Z,11.13
2023-05-21T03:24:33.634Z,11.33
2023-05-21T03:27:02.005Z,11.00
2023-05-21T03:29:29.885Z,12.23
2023-05-21T03:31:58.093Z,11.70
2023-05-21T03:34:25.806Z,11.20
2023-05-21T03:36:53.419Z,11.67
2023-05-21T03:39:22.369Z,11.47
2023-05-21T03:41:49.960Z,11.43
2023-05-21T03:44:17.607Z,11.40
2023-05-21T03:46:46.118Z,11.20
2023-05-21T03:49:15.020Z,10.83
2023-05-21T03:51:42.612Z,11.13
2023-05-21T03:54:10.399Z,11.77
2023-05-21T03:56:39.329Z,11.43
2023-05-21T03:59:06.909Z,11.30
2023-05-21T04:01:34.844Z,12.23
2023-05-21T04:04:02.609Z,11.23
2023-05-21T04:06:30.309Z,11.33
2023-05-21T04:08:57.920Z,11.40
2023-05-21T04:11:26.100Z,11.10
2023-05-21T04:13:55.041Z,11.13
2023-05-21T04:16:24.558Z,10.37
2023-05-21T04:18:52.373Z,10.73
2023-05-21T04:21:20.044Z,11.73
2023-05-21T04:23:47.672Z,10.73
2023-05-21T04:26:16.243Z,11.10
2023-05-21T04:28:45.748Z,10.43
2023-05-21T04:31:15.126Z,10.47
2023-05-21T04:33:45.860Z,10.63
2023-05-21T04:36:13.579Z,10.60
2023-05-21T04:38:42.364Z,10.30
2023-05-21T04:41:10.866Z,10.97
2023-05-21T04:43:38.626Z,12.13
2023-05-21T04:46:06.434Z,11.70
2023-05-21T04:48:35.425Z,11.63
2023-05-21T04:51:05.753Z,10.87
2023-05-21T04:53:33.891Z,11.83
2023-05-21T04:56:01.596Z,11.43
2023-05-21T04:58:29.218Z,10.17
2023-05-21T05:00:57.826Z,10.37
2023-05-21T05:03:25.608Z,10.90
2023-05-21T05:05:54.700Z,10.77
2023-05-21T05:08:22.330Z,11.20
2023-05-21T05:10:49.928Z,10.20
2023-05-21T05:13:17.603Z,11.00
2023-05-21T05:15:46.108Z,10.20
2023-05-21T05:18:15.111Z,9.97
2023-05-21T05:20:42.783Z,11.47
2023-05-21T05:23:11.756Z,10.63
2023-05-21T05:25:39.614Z,10.90
2023-05-21T05:28:07.372Z,9.80
2023-05-21T05:30:36.095Z,10.30
2023-05-21T05:33:03.809Z,11.10
2023-05-21T05:35:31.390Z,10.17
2023-05-21T05:37:59.263Z,10.40
2023-05-21T05:40:28.257Z,10.33
2023-05-21T05:42:55.958Z,9.83
2023-05-21T05:45:23.660Z,10.70
2023-05-21T05:47:51.288Z,11.00
2023-05-21T05:50:21.873Z,10.50
2023-05-21T05:52:49.514Z,9.97
2023-05-21T05:55:17.634Z,10.57
2023-05-21T05:57:46.636Z,9.53
2023-05-21T06:00:15.288Z,9.40
2023-05-21T06:02:43.148Z,10.20
2023-05-21T06:05:11.464Z,10.13
2023-05-21T06:07:39.679Z,9.10
2023-05-21T06:10:07.915Z,10.63
2023-05-21T06:12:35.908Z,9.87
2023-05-21T06:15:05.732Z,9.70
2023-05-21T06:17:33.380Z,9.80
2023-05-21T06:20:00.975Z,9.43
2023-05-21T06:22:28.614Z,9.57
2023-05-21T06:24:56.201Z,9.77
2023-05-21T06:27:23.777Z,9.33
2023-05-21T06:29:51.427Z,9.87
2023-05-21T06:32:21.364Z,9.40
2023-05-21T06:34:49.039Z,10.03
2023-05-21T06:37:20.482Z,9.57
2023-05-21T06:39:48.080Z,10.33
2023-05-21T06:42:15.749Z,10.13
2023-05-21T06:44:43.393Z,9.93
2023-05-21T06:47:11.018Z,10.10
2023-05-21T06:49:39.923Z,10.23
2023-05-21T06:52:07.980Z,9.83
2023-05-21T06:54:35.683Z,9.53
2023-05-21T06:57:03.315Z,9.73
2023-05-21T06:59:31.527Z,10.07
2023-05-21T07:01:59.210Z,10.27
2023-05-21T07:04:26.816Z,9.43
2023-05-21T07:06:55.770Z,9.80
2023-05-21T07:09:23.420Z,9.47
2023-05-21T07:11:51.630Z,10.87
2023-05-21T07:14:19.224Z,9.83
2023-05-21T07:16:46.874Z,9.60
2023-05-21T07:19:15.955Z,9.87
2023-05-21T07:21:43.608Z,10.00
2023-05-21T07:24:12.668Z,10.10
2023-05-21T07:26:40.415Z,9.70
2023-05-21T07:29:08.095Z,10.10
2023-05-21T07:31:35.749Z,10.00
2023-05-21T07:34:03.445Z,9.97
2023-05-21T07:36:31.078Z,10.17
2023-05-21T07:38:58.806Z,9.53
2023-05-21T07:41:27.728Z,9.50
2023-05-21T07:43:55.276Z,8.87
2023-05-21T07:46:23.300Z,9.57
2023-05-21T07:48:51.011Z,9.90
2023-05-21T07:51:18.684Z,10.27
2023-05-21T07:53:46.308Z,9.60
2023-05-21T07:56:13.965Z,8.97
2023-05-21T07:58:45.827Z,9.23
2023-05-21T08:01:13.574Z,9.67
2023-05-21T08:03:41.438Z,8.37
2023-05-21T08:06:09.180Z,9.23
2023-05-21T08:08:36.776Z,9.10
2023-05-21T08:11:04.437Z,9.03
2023-05-21T08:13:32.020Z,9.73
2023-05-21T08:16:01.600Z,8.50
2023-05-21T08:18:29.203Z,9.00
2023-05-21T08:20:56.896Z,8.83
2023-05-21T08:23:24.516Z,9.30
2023-05-21T08:25:53.459Z,8.90
2023-05-21T08:28:23.192Z,8.57
2023-05-21T08:30:50.844Z,8.93
2023-05-21T08:33:21.110Z,8.43
2023-05-21T08:35:49.153Z,8.73
2023-05-21T08:38:17.684Z,8.37
2023-05-21T08:40:47.657Z,9.67
2023-05-21T08:43:16.466Z,8.77
2023-05-21T08:45:46.719Z,8.80
2023-05-21T08:48:18.799Z,8.97
2023-05-21T08:50:46.469Z,8.90
2023-05-21T08:53:23.931Z,8.83
2023-05-21T08:55:57.172Z,9.17
2023-05-21T08:58:25.187Z,8.77
2023-05-21T09:00:52.826Z,9.50
2023-05-21T09:03:22.429Z,9.10
2023-05-21T09:05:51.169Z,9.33
2023-05-21T09:08:20.580Z,8.90
2023-05-21T09:10:51.155Z,9.43
2023-05-21T09:13:19.426Z,9.17
2023-05-21T09:15:47.733Z,9.07
2023-05-21T09:18:15.680Z,8.53
2023-05-21T09:20:45.337Z,9.53
2023-05-21T09:23:16.929Z,9.63
2023-05-21T09:25:46.823Z,9.43
2023-05-21T09:28:18.692Z,9.00
2023-05-21T09:30:46.769Z,9.23
2023-05-21T09:33:25.452Z,9.33
2023-05-21T09:35:54.523Z,8.63
2023-05-21T09:38:23.630Z,9.70
2023-05-21T09:40:51.610Z,10.10
2023-05-21T09:43:19.469Z,9.27
2023-05-21T09:45:53.874Z,9.60
2023-05-21T09:48:35.127Z,9.40
2023-05-21T09:51:15.004Z,8.47
2023-05-21T09:53:47.852Z,8.63
2023-05-21T09:56:15.520Z,8.93
2023-05-21T09:58:43.221Z,9.40
2023-05-21T10:01:11.825Z,9.67
2023-05-21T10:03:40.843Z,9.37
2023-05-21T10:06:09.957Z,9.20
2023-05-21T10:08:42.943Z,10.17
2023-05-21T10:11:11.120Z,9.00
2023-05-21T10:13:41.315Z,9.50
2023-05-21T10:16:09.377Z,8.83
2023-05-21T10:18:38.366Z,9.30
2023-05-21T10:21:07.166Z,8.40
2023-05-21T10:23:37.515Z,9.00
2023-05-21T10:26:06.607Z,7.97
2023-05-21T10:28:34.540Z,7.50
2023-05-21T10:31:02.405Z,7.57
2023-05-21T10:33:30.514Z,8.20
2023-05-21T10:35:59.567Z,8.07
2023-05-21T10:38:28.802Z,7.67
2023-05-21T10:40:56.895Z,7.50
2023-05-21T10:43:50.052Z,7.47
2023-05-21T10:46:40.798Z,7.13
2023-05-21T10:49:28.181Z,7.87
2023-05-21T10:52:06.953Z,7.33
2023-05-21T10:55:03.156Z,8.20
2023-05-21T10:57:45.949Z,8.17
2023-05-21T11:00:17.175Z,7.80
2023-05-21T11:02:45.678Z,7.50
2023-05-21T11:05:13.520Z,7.17
2023-05-21T11:07:56.176Z,7.77
2023-05-21T11:10:37.698Z,8.33
2023-05-21T11:13:09.554Z,8.10
2023-05-21T11:16:10.807Z,7.73
2023-05-21T11:19:00.712Z,7.63
2023-05-21T11:21:31.317Z,7.57
2023-05-21T11:24:03.727Z,8.40
2023-05-21T11:26:52.521Z,8.70
2023-05-21T11:29:21.018Z,8.40
2023-05-21T11:32:01.352Z,7.80
2023-05-21T11:34:39.500Z,7.80
2023-05-21T11:37:28.963Z,7.93
2023-05-21T11:39:57.533Z,8.70
2023-05-21T11:42:33.043Z,8.27
2023-05-21T11:45:01.948Z,8.23
2023-05-21T11:47:32.187Z,8.18
2023-05-21T11:50:01.097Z,7.80
2023-05-21T11:52:30.051Z,8.40
2023-05-21T11:54:59.620Z,8.73
2023-05-21T11:57:30.729Z,8.45
2023-05-21T11:59:59.747Z,8.60
2023-05-21T12:02:28.515Z,9.18
2023-05-21T12:05:00.019Z,9.23
2023-05-21T12:07:29.607Z,8.85
2023-05-21T12:09:57.438Z,8.48
2023-05-21T12:12:27.202Z,8.95
2023-05-21T12:14:56.959Z,8.75
2023-05-21T12:17:25.616Z,8.70
2023-05-21T12:19:55.281Z,8.93
2023-05-21T12:22:25.038Z,8.68
2023-05-21T12:24:53.840Z,8.95
2023-05-21T12:27:22.782Z,8.63
2023-05-21T12:29:51.603Z,9.18
2023-05-21T12:32:19.241Z,8.85
2023-05-21T12:34:48.645Z,8.20
2023-05-21T12:37:17.314Z,8.57
2023-05-21T12:39:47.403Z,7.93
2023-05-21T12:42:15.401Z,8.77
2023-05-21T12:44:45.445Z,8.63
2023-05-21T12:47:13.473Z,8.98
2023-05-21T12:49:42.121Z,8.98
2023-05-21T12:52:11.334Z,8.77
2023-05-21T12:54:39.908Z,7.72
2023-05-21T12:57:15.250Z,8.30
2023-05-21T12:59:50.698Z,8.27
2023-05-21T13:02:21.811Z,8.57
2023-05-21T13:04:49.893Z,7.32
2023-05-21T13:07:19.346Z,8.68
2023-05-21T13:09:47.000Z,8.02
2023-05-21T13:12:15.977Z,8.32
2023-05-21T13:14:43.612Z,7.95
2023-05-21T13:17:12.107Z,7.70
2023-05-21T13:19:39.694Z,8.13
2023-05-21T13:22:07.655Z,7.22
2023-05-21T13:24:35.343Z,7.43
2023-05-21T13:27:03.043Z,7.60
2023-05-21T13:29:32.238Z,7.35
2023-05-21T13:31:59.955Z,7.43
2023-05-21T13:34:27.561Z,7.20
2023-05-21T13:36:55.145Z,7.50
2023-05-21T13:39:26.762Z,7.72
2023-05-21T13:41:55.068Z,7.07
2023-05-21T13:44:22.790Z,7.70
2023-05-21T13:46:51.908Z,7.57
2023-05-21T13:49:19.612Z,6.93
2023-05-21T13:51:47.422Z,7.07
2023-05-21T13:54:15.745Z,7.45
2023-05-21T13:56:43.456Z,7.63
2023-05-21T13:59:11.086Z,7.10
2023-05-21T14:01:38.786Z,6.82
2023-05-21T14:04:08.329Z,6.57
2023-05-21T14:06:36.089Z,6.95
2023-05-21T14:09:08.568Z,6.65
2023-05-21T14:11:36.593Z,6.70
2023-05-21T14:14:07.151Z,6.60
2023-05-21T14:16:34.874Z,6.47
2023-05-21T14:19:03.542Z,6.80
2023-05-21T14:21:32.819Z,6.93
2023-05-21T14:24:00.561Z,6.82
2023-05-21T14:26:28.494Z,7.43
2023-05-21T14:28:57.012Z,7.03
2023-05-21T14:31:25.397Z,6.63
2023-05-21T14:33:53.024Z,6.60
2023-05-21T14:36:20.735Z,7.03
2023-05-21T14:38:49.828Z,6.55
2023-05-21T14:41:17.550Z,6.50
2023-05-21T14:43:45.238Z,6.45
2023-05-21T14:46:13.180Z,6.60
2023-05-21T14:48:41.107Z,6.82
2023-05-21T14:51:11.981Z,6.45
2023-05-21T14:53:39.746Z,7.22
2023-05-21T14:56:09.317Z,6.30
2023-05-21T14:58:36.930Z,6.35
2023-05-21T15:01:05.059Z,6.22
2023-05-21T15:03:32.951Z,6.20
2023-05-21T15:06:00.724Z,6.15
2023-05-21T15:08:28.479Z,7.07
2023-05-21T15:10:56.130Z,7.03
2023-05-21T15:13:25.145Z,6.63
2023-05-21T15:15:52.900Z,6.00
2023-05-21T15:18:20.687Z,6.30
2023-05-21T15:20:48.602Z,6.40
2023-05-21T15:23:17.641Z,5.93
2023-05-21T15:25:45.912Z,6.30
2023-05-21T15:28:13.695Z,6.20
2023-05-21T15:30:42.967Z,6.50
2023-05-21T15:33:11.076Z,6.50
2023-05-21T15:35:39.168Z,6.10
2023-05-21T15:38:07.323Z,5.93
2023-05-21T15:40:35.024Z,6.15
2023-05-21T15:43:02.724Z,6.13
2023-05-21T15:45:30.407Z,6.10
2023-05-21T15:47:59.511Z,6.30
2023-05-21T15:50:27.121Z,6.45
2023-05-21T15:52:54.796Z,6.70
2023-05-21T15:55:22.634Z,6.43
2023-05-21T15:57:50.640Z,6.60
2023-05-21T16:00:18.532Z,6.65
2023-05-21T16:02:46.249Z,6.78
2023-05-21T16:05:15.354Z,7.00
2023-05-21T16:07:43.048Z,6.40
2023-05-21T16:10:11.125Z,7.05
2023-05-21T16:12:39.076Z,6.60
2023-05-21T16:15:07.554Z,6.65
2023-05-21T16:17:35.201Z,6.68
2023-05-21T16:20:02.866Z,6.90
2023-05-21T16:22:31.805Z,6.57
2023-05-21T16:24:59.429Z,6.20
2023-05-21T16:27:27.051Z,6.85
2023-05-21T16:29:54.653Z,6.15
2023-05-21T16:32:22.651Z,6.30
2023-05-21T16:34:50.458Z,6.25
2023-05-21T16:37:18.126Z,6.43
2023-05-21T16:39:47.145Z,6.07
2023-05-21T16:42:14.802Z,6.95
2023-05-21T16:44:42.390Z,6.63
2023-05-21T16:47:10.124Z,6.55
2023-05-21T16:49:37.771Z,6.05
2023-05-21T16:52:05.671Z,6.40
2023-05-21T16:54:34.168Z,6.38
2023-05-21T16:57:03.246Z,7.13
2023-05-21T16:59:30.910Z,6.22
2023-05-21T17:01:58.578Z,6.80
2023-05-21T17:04:26.473Z,6.80
2023-05-21T17:06:54.116Z,7.03
2023-05-21T17:09:21.807Z,6.35
2023-05-21T17:11:49.583Z,6.70
2023-05-21T17:14:32.616Z,6.82
2023-05-21T17:17:01.763Z,6.70
2023-05-21T17:19:29.544Z,7.32
2023-05-21T17:21:59.228Z,6.47
2023-05-21T17:24:26.890Z,6.50
2023-05-21T17:26:54.764Z,6.70
2023-05-21T17:29:23.769Z,7.30
2023-05-21T17:31:51.560Z,6.85
2023-05-21T17:34:19.259Z,6.50
2023-05-21T17:36:46.923Z,6.78
2023-05-21T17:39:14.662Z,6.68
2023-05-21T17:41:42.518Z,6.57
2023-05-21T17:44:11.359Z,6.85
2023-05-21T17:46:40.482Z,7.00
2023-05-21T17:49:08.553Z,7.13
2023-05-21T17:51:36.958Z,6.80
2023-05-21T17:54:04.945Z,6.97
2023-05-21T17:56:34.276Z,6.97
2023-05-21T17:59:01.957Z,6.95
2023-05-21T18:01:29.680Z,7.38
2023-05-21T18:03:58.830Z,6.28
2023-05-21T18:06:26.476Z,6.80
2023-05-21T18:08:54.056Z,6.47
2023-05-21T18:11:22.328Z,6.53
2023-05-21T18:13:50.034Z,7.07
2023-05-21T18:16:18.001Z,6.70
2023-05-21T18:18:45.678Z,7.20
2023-05-21T18:21:14.767Z,7.10
2023-05-21T18:23:42.364Z,6.70
2023-05-21T18:26:09.980Z,7.28
2023-05-21T18:28:37.557Z,6.82
2023-05-21T18:31:05.219Z,7.25
2023-05-21T18:33:32.876Z,7.70
2023-05-21T18:36:00.556Z,6.72
2023-05-21T18:38:29.521Z,6.65
2023-05-21T18:40:57.123Z,7.25
2023-05-21T18:43:24.783Z,7.20
2023-05-21T18:45:52.378Z,7.43
2023-05-21T18:48:20.104Z,7.07
2023-05-21T18:50:47.769Z,7.18
2023-05-21T18:53:15.665Z,7.20
2023-05-21T18:55:44.664Z,7.20
2023-05-21T18:58:12.302Z,6.40
2023-05-21T19:00:40.071Z,7.05
2023-05-21T19:03:07.720Z,6.82
2023-05-21T19:05:35.434Z,6.85
2023-05-21T19:08:03.840Z,7.05
2023-05-21T19:10:32.335Z,7.30
2023-05-21T19:13:01.310Z,7.30
2023-05-21T19:15:28.931Z,6.67
2023-05-21T19:17:56.581Z,7.05
2023-05-21T19:20:24.863Z,6.87
2023-05-21T19:22:52.525Z,6.97
2023-05-21T19:25:20.185Z,7.10
2023-05-21T19:27:47.797Z,7.63
2023-05-21T19:30:16.977Z,7.27
2023-05-21T19:32:44.703Z,7.37
2023-05-21T19:35:12.295Z,6.63
2023-05-21T19:37:40.006Z,7.73
2023-05-21T19:40:08.892Z,6.73
2023-05-21T19:42:36.992Z,8.67
2023-05-21T19:45:06.793Z,7.93
2023-05-21T19:47:35.873Z,6.93
2023-05-21T19:50:03.936Z,6.93
2023-05-21T19:52:31.570Z,6.80
2023-05-21T19:55:04.414Z,6.90
2023-05-21T19:57:32.405Z,6.70
2023-05-21T20:00:00.095Z,7.13
2023-05-21T20:02:28.683Z,6.87
2023-05-21T20:04:58.978Z,6.97
2023-05-21T20:07:26.694Z,6.80
2023-05-21T20:09:54.285Z,7.80
2023-05-21T20:12:21.908Z,7.67
2023-05-21T20:14:49.848Z,7.33
2023-05-21T20:17:18.953Z,6.83
2023-05-21T20:19:48.161Z,7.03
2023-05-21T20:22:17.275Z,7.13
2023-05-21T20:24:45.130Z,7.60
2023-05-21T20:27:12.775Z,7.43
2023-05-21T20:29:42.853Z,7.70
2023-05-21T20:32:10.559Z,7.27
2023-05-21T20:34:47.222Z,7.80
2023-05-21T20:37:26.074Z,7.87
2023-05-21T20:39:58.033Z,7.57
2023-05-21T20:42:28.376Z,7.30
2023-05-21T20:44:58.844Z,7.77
2023-05-21T20:47:29.800Z,7.93
2023-05-21T20:49:58.450Z,8.73
2023-05-21T20:52:27.521Z,8.50
2023-05-21T20:54:55.273Z,8.00
2023-05-21T20:57:23.998Z,8.00
2023-05-21T20:59:52.327Z,7.27
2023-05-21T21:02:20.610Z,8.23
2023-05-21T21:04:48.923Z,7.80
2023-05-21T21:07:18.088Z,8.33
2023-05-21T21:09:47.603Z,8.60
2023-05-21T21:12:26.124Z,7.60
2023-05-21T21:14:54.549Z,8.20
2023-05-21T21:17:22.228Z,8.37
2023-05-21T21:19:49.946Z,8.73
2023-05-21T21:22:18.244Z,9.10
2023-05-21T21:24:48.151Z,8.47
2023-05-21T21:27:15.838Z,8.80
2023-05-21T21:29:44.134Z,8.63
2023-05-21T21:32:11.779Z,8.70
2023-05-21T21:34:39.368Z,9.27
2023-05-21T21:37:07.032Z,8.67
2023-05-21T21:39:34.694Z,9.10
2023-05-21T21:42:03.718Z,9.20
2023-05-21T21:44:31.397Z,9.17
2023-05-21T21:46:59.015Z,9.73
2023-05-21T21:49:26.660Z,9.70
2023-05-21T21:51:57.622Z,9.27
2023-05-21T21:54:25.504Z,10.40
2023-05-21T21:56:53.164Z,9.83
2023-05-21T21:59:22.423Z,10.23
2023-05-21T22:01:50.226Z,10.67
2023-05-21T22:04:17.902Z,9.40
2023-05-21T22:06:46.716Z,10.03
2023-05-21T22:09:14.380Z,10.57
2023-05-21T22:11:42.246Z,10.20
2023-05-21T22:14:11.574Z,10.70
2023-05-21T22:16:41.458Z,10.40
2023-05-21T22:19:10.169Z,10.50
2023-05-21T22:21:37.987Z,10.37
2023-05-21T22:24:05.809Z,11.10
2023-05-21T22:26:33.483Z,10.53
2023-05-21T22:29:01.103Z,11.43
2023-05-21T22:31:28.720Z,10.50
2023-05-21T22:33:57.949Z,9.83
2023-05-21T22:36:25.643Z,10.97
2023-05-21T22:38:53.372Z,10.17
2023-05-21T22:41:21.775Z,11.37
2023-05-21T22:43:49.463Z,10.90
2023-05-21T22:46:17.104Z,10.53
2023-05-21T22:48:46.022Z,10.97
2023-05-21T22:51:15.079Z,11.03
2023-05-21T22:53:42.928Z,10.97
2023-05-21T22:56:11.731Z,10.47
2023-05-21T22:58:39.397Z,10.60
2023-05-21T23:01:07.059Z,11.60
2023-05-21T23:03:34.667Z,11.80
2023-05-21T23:06:02.309Z,11.37
2023-05-21T23:08:31.256Z,10.83
2023-05-21T23:10:58.909Z,11.37
2023-05-21T23:13:26.675Z,11.33
2023-05-21T23:15:54.336Z,11.07
2023-05-21T23:18:21.996Z,11.03
2023-05-21T23:20:49.693Z,11.47
2023-05-21T23:23:17.365Z,10.83
2023-05-21T23:25:46.560Z,10.87
2023-05-21T23:28:14.153Z,12.00
2023-05-21T23:30:41.862Z,11.83
2023-05-21T23:33:09.829Z,11.73
2023-05-21T23:35:37.514Z,11.50
2023-05-21T23:38:05.147Z,11.10
2023-05-21T23:40:32.789Z,11.93
2023-05-21T23:43:01.736Z,11.80
2023-05-21T23:45:29.425Z,11.83
2023-05-21T23:47:57.093Z,12.30
2023-05-21T23:50:25.926Z,13.27
2023-05-21T23:52:53.599Z,12.97
2023-05-21T23:55:21.253Z,12.93
2023-05-21T23:57:48.865Z,12.33
